sensor_id;sensor_type;location;lat;lon;timestamp;P1;durP1;ratioP1;P2;durP2;ratioP2
57101;SDS011;42982;54.558;18.508;2022-08-21T00:00:33;12.20;;;6.93;;
57101;SDS011;42982;54.558;18.508;2022-08-21T00:01:35;9.80;;;6.30;;
57101;SDS011;42982;54.558;18.508;2022-08-21T00:02:44;10.40;;;6.45;;
57101;SDS011;42982;54.558;18.508;2022-08-21T00:03:52;9.45;;;6.13;;
57101;SDS011;42982;54.558;18.508;2022-08-21T00:04:56;8.63;;;6.00;;
57101;SDS011;42982;54.558;18.508;2022-08-21T00:05:58;8.57;;;6.15;;
57101;SDS011;42982;54.558;18.508;2022-08-21T00:07:01;8.82;;;6.57;;
57101;SDS011;42982;54.558;18.508;2022-08-21T00:08:06;8.93;;;5.95;;
57101;SDS011;42982;54.558;18.508;2022-08-21T00:09:10;8.27;;;5.65;;
57101;SDS011;42982;54.558;18.508;2022-08-21T00:10:14;11.05;;;5.65;;
57101;SDS011;42982;54.558;18.508;2022-08-21T00:11:18;6.20;;;5.20;;
57101;SDS011;42982;54.558;18.508;2022-08-21T00:12:22;10.93;;;7.78;;
57101;SDS011;42982;54.558;18.508;2022-08-21T00:13:28;14.48;;;7.85;;
57101;SDS011;42982;54.558;18.508;2022-08-21T00:14:33;13.25;;;6.57;;
57101;SDS011;42982;54.558;18.508;2022-08-21T00:15:39;21.02;;;10.73;;
57101;SDS011;42982;54.558;18.508;2022-08-21T00:16:42;9.10;;;6.40;;
57101;SDS011;42982;54.558;18.508;2022-08-21T00:17:48;11.93;;;6.72;;
57101;SDS011;42982;54.558;18.508;2022-08-21T00:18:54;16.02;;;8.43;;
57101;SDS011;42982;54.558;18.508;2022-08-21T00:19:59;9.85;;;6.35;;
57101;SDS011;42982;54.558;18.508;2022-08-21T00:21:05;9.00;;;5.63;;
57101;SDS011;42982;54.558;18.508;2022-08-21T00:22:07;7.32;;;5.43;;
57101;SDS011;42982;54.558;18.508;2022-08-21T00:23:15;8.35;;;5.35;;
57101;SDS011;42982;54.558;18.508;2022-08-21T00:24:21;10.80;;;5.80;;
57101;SDS011;42982;54.558;18.508;2022-08-21T00:25:25;9.05;;;5.50;;
57101;SDS011;42982;54.558;18.508;2022-08-21T00:26:28;7.78;;;5.78;;
57101;SDS011;42982;54.558;18.508;2022-08-21T00:27:33;8.55;;;5.60;;
57101;SDS011;42982;54.558;18.508;2022-08-21T00:28:38;7.32;;;5.45;;
57101;SDS011;42982;54.558;18.508;2022-08-21T00:29:42;9.93;;;5.70;;
57101;SDS011;42982;54.558;18.508;2022-08-21T00:30:46;8.63;;;5.70;;
57101;SDS011;42982;54.558;18.508;2022-08-21T00:31:51;8.40;;;5.43;;
57101;SDS011;42982;54.558;18.508;2022-08-21T00:32:56;7.78;;;5.65;;
57101;SDS011;42982;54.558;18.508;2022-08-21T00:33:59;8.00;;;5.63;;
57101;SDS011;42982;54.558;18.508;2022-08-21T00:35:08;6.95;;;5.32;;
57101;SDS011;42982;54.558;18.508;2022-08-21T00:36:18;9.27;;;5.55;;
57101;SDS011;42982;54.558;18.508;2022-08-21T00:37:22;6.65;;;5.22;;
57101;SDS011;42982;54.558;18.508;2022-08-21T00:38:26;9.25;;;5.53;;
57101;SDS011;42982;54.558;18.508;2022-08-21T00:39:30;10.93;;;5.53;;
57101;SDS011;42982;54.558;18.508;2022-08-21T00:40:34;7.50;;;5.30;;
57101;SDS011;42982;54.558;18.508;2022-08-21T00:41:40;8.90;;;5.72;;
57101;SDS011;42982;54.558;18.508;2022-08-21T00:42:46;8.52;;;5.70;;
57101;SDS011;42982;54.558;18.508;2022-08-21T00:43:57;10.88;;;5.85;;
57101;SDS011;42982;54.558;18.508;2022-08-21T00:45:00;9.18;;;5.75;;
57101;SDS011;42982;54.558;18.508;2022-08-21T00:46:03;10.30;;;5.43;;
57101;SDS011;42982;54.558;18.508;2022-08-21T00:47:06;8.25;;;5.45;;
57101;SDS011;42982;54.558;18.508;2022-08-21T00:48:09;7.25;;;5.15;;
57101;SDS011;42982;54.558;18.508;2022-08-21T00:49:11;9.40;;;5.90;;
57101;SDS011;42982;54.558;18.508;2022-08-21T00:50:13;7.05;;;5.60;;
57101;SDS011;42982;54.558;18.508;2022-08-21T00:51:22;8.85;;;6.25;;
57101;SDS011;42982;54.558;18.508;2022-08-21T00:52:42;9.35;;;5.65;;
57101;SDS011;42982;54.558;18.508;2022-08-21T00:53:49;10.80;;;6.65;;
57101;SDS011;42982;54.558;18.508;2022-08-21T00:54:55;9.20;;;6.10;;
57101;SDS011;42982;54.558;18.508;2022-08-21T00:56:02;10.38;;;6.00;;
57101;SDS011;42982;54.558;18.508;2022-08-21T00:57:15;11.57;;;6.32;;
57101;SDS011;42982;54.558;18.508;2022-08-21T00:58:22;9.52;;;6.43;;
57101;SDS011;42982;54.558;18.508;2022-08-21T00:59:24;11.60;;;6.18;;
57101;SDS011;42982;54.558;18.508;2022-08-21T01:00:34;8.00;;;6.10;;
57101;SDS011;42982;54.558;18.508;2022-08-21T01:01:42;8.80;;;6.05;;
57101;SDS011;42982;54.558;18.508;2022-08-21T01:02:46;8.63;;;6.10;;
57101;SDS011;42982;54.558;18.508;2022-08-21T01:03:50;9.55;;;6.20;;
57101;SDS011;42982;54.558;18.508;2022-08-21T01:04:51;10.68;;;6.70;;
57101;SDS011;42982;54.558;18.508;2022-08-21T01:05:53;10.20;;;6.50;;
57101;SDS011;42982;54.558;18.508;2022-08-21T01:06:57;8.98;;;6.38;;
57101;SDS011;42982;54.558;18.508;2022-08-21T01:08:02;10.05;;;6.32;;
57101;SDS011;42982;54.558;18.508;2022-08-21T01:09:07;9.48;;;6.60;;
57101;SDS011;42982;54.558;18.508;2022-08-21T01:10:12;8.50;;;6.10;;
57101;SDS011;42982;54.558;18.508;2022-08-21T01:11:17;9.93;;;6.70;;
57101;SDS011;42982;54.558;18.508;2022-08-21T01:12:21;8.95;;;5.70;;
57101;SDS011;42982;54.558;18.508;2022-08-21T01:13:24;14.32;;;6.75;;
57101;SDS011;42982;54.558;18.508;2022-08-21T01:14:31;9.32;;;6.30;;
57101;SDS011;42982;54.558;18.508;2022-08-21T01:15:37;10.43;;;6.38;;
57101;SDS011;42982;54.558;18.508;2022-08-21T01:16:40;10.35;;;6.53;;
57101;SDS011;42982;54.558;18.508;2022-08-21T01:17:47;10.88;;;6.63;;
57101;SDS011;42982;54.558;18.508;2022-08-21T01:18:53;10.32;;;7.05;;
57101;SDS011;42982;54.558;18.508;2022-08-21T01:19:58;9.15;;;6.75;;
57101;SDS011;42982;54.558;18.508;2022-08-21T01:21:09;11.95;;;7.10;;
57101;SDS011;42982;54.558;18.508;2022-08-21T01:22:19;12.40;;;6.65;;
57101;SDS011;42982;54.558;18.508;2022-08-21T01:23:29;9.95;;;6.47;;
57101;SDS011;42982;54.558;18.508;2022-08-21T01:24:36;10.48;;;5.97;;
57101;SDS011;42982;54.558;18.508;2022-08-21T01:25:40;8.02;;;5.88;;
57101;SDS011;42982;54.558;18.508;2022-08-21T01:26:45;8.60;;;6.00;;
57101;SDS011;42982;54.558;18.508;2022-08-21T01:27:48;9.80;;;6.57;;
57101;SDS011;42982;54.558;18.508;2022-08-21T01:29:00;7.65;;;5.50;;
57101;SDS011;42982;54.558;18.508;2022-08-21T01:31:16;7.15;;;5.30;;
57101;SDS011;42982;54.558;18.508;2022-08-21T01:32:23;6.25;;;4.75;;
57101;SDS011;42982;54.558;18.508;2022-08-21T01:33:25;9.00;;;4.22;;
57101;SDS011;42982;54.558;18.508;2022-08-21T01:34:28;5.70;;;4.20;;
57101;SDS011;42982;54.558;18.508;2022-08-21T01:35:30;5.57;;;3.97;;
57101;SDS011;42982;54.558;18.508;2022-08-21T01:36:37;4.85;;;3.72;;
57101;SDS011;42982;54.558;18.508;2022-08-21T01:37:39;7.38;;;3.95;;
57101;SDS011;42982;54.558;18.508;2022-08-21T01:38:41;4.10;;;2.90;;
57101;SDS011;42982;54.558;18.508;2022-08-21T01:39:45;3.60;;;2.50;;
57101;SDS011;42982;54.558;18.508;2022-08-21T01:40:47;3.85;;;2.83;;
57101;SDS011;42982;54.558;18.508;2022-08-21T01:41:49;3.92;;;3.25;;
57101;SDS011;42982;54.558;18.508;2022-08-21T01:42:57;4.07;;;2.92;;
57101;SDS011;42982;54.558;18.508;2022-08-21T01:44:04;5.40;;;3.45;;
57101;SDS011;42982;54.558;18.508;2022-08-21T01:45:13;8.80;;;3.50;;
57101;SDS011;42982;54.558;18.508;2022-08-21T01:46:21;4.30;;;3.72;;
57101;SDS011;42982;54.558;18.508;2022-08-21T01:47:27;4.80;;;3.50;;
57101;SDS011;42982;54.558;18.508;2022-08-21T01:48:32;5.45;;;3.60;;
57101;SDS011;42982;54.558;18.508;2022-08-21T01:49:35;4.65;;;3.45;;
57101;SDS011;42982;54.558;18.508;2022-08-21T01:50:46;6.00;;;4.00;;
57101;SDS011;42982;54.558;18.508;2022-08-21T01:51:53;6.82;;;4.63;;
57101;SDS011;42982;54.558;18.508;2022-08-21T01:53:00;6.95;;;4.57;;
57101;SDS011;42982;54.558;18.508;2022-08-21T01:54:02;7.47;;;4.43;;
57101;SDS011;42982;54.558;18.508;2022-08-21T01:55:12;6.40;;;4.63;;
57101;SDS011;42982;54.558;18.508;2022-08-21T01:56:17;6.57;;;4.45;;
57101;SDS011;42982;54.558;18.508;2022-08-21T01:57:21;6.28;;;4.88;;
57101;SDS011;42982;54.558;18.508;2022-08-21T01:58:27;6.25;;;4.60;;
57101;SDS011;42982;54.558;18.508;2022-08-21T01:59:34;8.07;;;4.70;;
57101;SDS011;42982;54.558;18.508;2022-08-21T02:00:36;7.47;;;4.68;;
57101;SDS011;42982;54.558;18.508;2022-08-21T02:01:41;6.43;;;4.72;;
57101;SDS011;42982;54.558;18.508;2022-08-21T02:02:46;6.13;;;4.50;;
57101;SDS011;42982;54.558;18.508;2022-08-21T02:03:53;7.30;;;4.95;;
57101;SDS011;42982;54.558;18.508;2022-08-21T02:04:56;6.50;;;4.90;;
57101;SDS011;42982;54.558;18.508;2022-08-21T02:06:00;5.93;;;4.70;;
57101;SDS011;42982;54.558;18.508;2022-08-21T02:07:02;5.65;;;4.65;;
57101;SDS011;42982;54.558;18.508;2022-08-21T02:08:07;7.57;;;5.10;;
57101;SDS011;42982;54.558;18.508;2022-08-21T02:09:12;6.35;;;4.57;;
57101;SDS011;42982;54.558;18.508;2022-08-21T02:10:19;5.85;;;4.63;;
57101;SDS011;42982;54.558;18.508;2022-08-21T02:11:26;6.85;;;5.03;;
57101;SDS011;42982;54.558;18.508;2022-08-21T02:12:30;7.05;;;4.75;;
57101;SDS011;42982;54.558;18.508;2022-08-21T02:13:37;6.72;;;5.25;;
57101;SDS011;42982;54.558;18.508;2022-08-21T02:14:39;6.45;;;4.82;;
57101;SDS011;42982;54.558;18.508;2022-08-21T02:16:54;8.00;;;5.45;;
57101;SDS011;42982;54.558;18.508;2022-08-21T02:17:58;6.25;;;4.82;;
57101;SDS011;42982;54.558;18.508;2022-08-21T02:19:04;9.00;;;5.18;;
57101;SDS011;42982;54.558;18.508;2022-08-21T02:20:07;6.90;;;5.20;;
57101;SDS011;42982;54.558;18.508;2022-08-21T02:21:10;9.18;;;5.95;;
57101;SDS011;42982;54.558;18.508;2022-08-21T02:22:15;8.32;;;5.88;;
57101;SDS011;42982;54.558;18.508;2022-08-21T02:23:20;7.55;;;5.47;;
57101;SDS011;42982;54.558;18.508;2022-08-21T02:24:22;7.35;;;5.60;;
57101;SDS011;42982;54.558;18.508;2022-08-21T02:25:26;10.18;;;5.97;;
57101;SDS011;42982;54.558;18.508;2022-08-21T02:26:30;8.85;;;5.95;;
57101;SDS011;42982;54.558;18.508;2022-08-21T02:27:40;8.15;;;5.72;;
57101;SDS011;42982;54.558;18.508;2022-08-21T02:28:46;7.32;;;5.85;;
57101;SDS011;42982;54.558;18.508;2022-08-21T02:29:51;8.48;;;5.75;;
57101;SDS011;42982;54.558;18.508;2022-08-21T02:30:56;9.88;;;5.85;;
57101;SDS011;42982;54.558;18.508;2022-08-21T02:31:58;11.50;;;6.25;;
57101;SDS011;42982;54.558;18.508;2022-08-21T02:33:07;12.13;;;6.13;;
57101;SDS011;42982;54.558;18.508;2022-08-21T02:34:10;8.23;;;5.97;;
57101;SDS011;42982;54.558;18.508;2022-08-21T02:35:12;10.13;;;6.40;;
57101;SDS011;42982;54.558;18.508;2022-08-21T02:36:15;9.35;;;6.70;;
57101;SDS011;42982;54.558;18.508;2022-08-21T02:37:18;9.85;;;6.50;;
57101;SDS011;42982;54.558;18.508;2022-08-21T02:38:22;9.40;;;6.13;;
57101;SDS011;42982;54.558;18.508;2022-08-21T02:39:27;9.40;;;6.57;;
57101;SDS011;42982;54.558;18.508;2022-08-21T02:40:33;8.10;;;6.13;;
57101;SDS011;42982;54.558;18.508;2022-08-21T02:41:42;9.05;;;6.30;;
57101;SDS011;42982;54.558;18.508;2022-08-21T02:42:47;8.93;;;6.32;;
57101;SDS011;42982;54.558;18.508;2022-08-21T02:43:52;10.43;;;6.95;;
57101;SDS011;42982;54.558;18.508;2022-08-21T02:44:57;10.60;;;6.40;;
57101;SDS011;42982;54.558;18.508;2022-08-21T02:45:59;10.30;;;6.72;;
57101;SDS011;42982;54.558;18.508;2022-08-21T02:47:06;9.80;;;6.47;;
57101;SDS011;42982;54.558;18.508;2022-08-21T02:48:09;9.52;;;6.78;;
57101;SDS011;42982;54.558;18.508;2022-08-21T02:49:13;10.93;;;6.72;;
57101;SDS011;42982;54.558;18.508;2022-08-21T02:50:25;10.07;;;6.15;;
57101;SDS011;42982;54.558;18.508;2022-08-21T02:51:29;9.20;;;6.68;;
57101;SDS011;42982;54.558;18.508;2022-08-21T02:52:36;10.93;;;7.88;;
57101;SDS011;42982;54.558;18.508;2022-08-21T02:53:38;10.15;;;6.55;;
57101;SDS011;42982;54.558;18.508;2022-08-21T02:54:44;8.75;;;6.53;;
57101;SDS011;42982;54.558;18.508;2022-08-21T02:55:47;10.15;;;7.13;;
57101;SDS011;42982;54.558;18.508;2022-08-21T02:56:53;9.95;;;7.25;;
57101;SDS011;42982;54.558;18.508;2022-08-21T02:57:57;11.85;;;7.18;;
57101;SDS011;42982;54.558;18.508;2022-08-21T02:59:02;10.73;;;6.63;;
57101;SDS011;42982;54.558;18.508;2022-08-21T03:00:07;10.90;;;7.13;;
57101;SDS011;42982;54.558;18.508;2022-08-21T03:01:17;11.48;;;7.05;;
57101;SDS011;42982;54.558;18.508;2022-08-21T03:02:20;10.02;;;6.60;;
57101;SDS011;42982;54.558;18.508;2022-08-21T03:03:27;10.52;;;6.88;;
57101;SDS011;42982;54.558;18.508;2022-08-21T03:04:32;11.05;;;6.40;;
57101;SDS011;42982;54.558;18.508;2022-08-21T03:05:35;9.52;;;6.88;;
57101;SDS011;42982;54.558;18.508;2022-08-21T03:06:41;9.98;;;6.47;;
57101;SDS011;42982;54.558;18.508;2022-08-21T03:07:46;9.20;;;6.15;;
57101;SDS011;42982;54.558;18.508;2022-08-21T03:08:49;11.65;;;6.90;;
57101;SDS011;42982;54.558;18.508;2022-08-21T03:09:54;9.60;;;6.72;;
57101;SDS011;42982;54.558;18.508;2022-08-21T03:10:58;10.40;;;6.47;;
57101;SDS011;42982;54.558;18.508;2022-08-21T03:12:01;11.32;;;6.70;;
57101;SDS011;42982;54.558;18.508;2022-08-21T03:13:09;9.73;;;6.72;;
57101;SDS011;42982;54.558;18.508;2022-08-21T03:14:11;11.52;;;6.47;;
57101;SDS011;42982;54.558;18.508;2022-08-21T03:15:17;9.13;;;6.45;;
57101;SDS011;42982;54.558;18.508;2022-08-21T03:16:21;12.10;;;6.70;;
57101;SDS011;42982;54.558;18.508;2022-08-21T03:17:28;8.95;;;6.55;;
57101;SDS011;42982;54.558;18.508;2022-08-21T03:18:31;9.52;;;6.20;;
57101;SDS011;42982;54.558;18.508;2022-08-21T03:19:33;9.10;;;6.63;;
57101;SDS011;42982;54.558;18.508;2022-08-21T03:20:38;8.75;;;6.47;;
57101;SDS011;42982;54.558;18.508;2022-08-21T03:21:45;9.82;;;6.10;;
57101;SDS011;42982;54.558;18.508;2022-08-21T03:22:48;8.85;;;5.57;;
57101;SDS011;42982;54.558;18.508;2022-08-21T03:23:55;8.77;;;6.40;;
57101;SDS011;42982;54.558;18.508;2022-08-21T03:25:04;8.80;;;6.13;;
57101;SDS011;42982;54.558;18.508;2022-08-21T03:26:09;10.50;;;6.43;;
57101;SDS011;42982;54.558;18.508;2022-08-21T03:27:11;9.02;;;6.28;;
57101;SDS011;42982;54.558;18.508;2022-08-21T03:28:15;8.98;;;6.45;;
57101;SDS011;42982;54.558;18.508;2022-08-21T03:29:18;10.27;;;6.43;;
57101;SDS011;42982;54.558;18.508;2022-08-21T03:30:23;13.88;;;6.57;;
57101;SDS011;42982;54.558;18.508;2022-08-21T03:31:27;13.13;;;6.75;;
57101;SDS011;42982;54.558;18.508;2022-08-21T03:32:34;8.70;;;6.18;;
57101;SDS011;42982;54.558;18.508;2022-08-21T03:33:36;8.88;;;6.40;;
57101;SDS011;42982;54.558;18.508;2022-08-21T03:34:43;9.30;;;6.38;;
57101;SDS011;42982;54.558;18.508;2022-08-21T03:35:49;9.30;;;6.13;;
57101;SDS011;42982;54.558;18.508;2022-08-21T03:36:56;10.35;;;6.43;;
57101;SDS011;42982;54.558;18.508;2022-08-21T03:38:01;8.88;;;5.72;;
57101;SDS011;42982;54.558;18.508;2022-08-21T03:39:04;8.07;;;5.80;;
57101;SDS011;42982;54.558;18.508;2022-08-21T03:40:09;10.48;;;6.55;;
57101;SDS011;42982;54.558;18.508;2022-08-21T03:41:12;9.52;;;5.38;;
57101;SDS011;42982;54.558;18.508;2022-08-21T03:42:20;8.85;;;5.82;;
57101;SDS011;42982;54.558;18.508;2022-08-21T03:43:24;8.43;;;5.68;;
57101;SDS011;42982;54.558;18.508;2022-08-21T03:44:33;8.25;;;5.53;;
57101;SDS011;42982;54.558;18.508;2022-08-21T03:45:41;7.88;;;5.93;;
57101;SDS011;42982;54.558;18.508;2022-08-21T03:46:46;11.65;;;6.32;;
57101;SDS011;42982;54.558;18.508;2022-08-21T03:48:00;9.05;;;5.82;;
57101;SDS011;42982;54.558;18.508;2022-08-21T03:49:03;9.30;;;6.03;;
57101;SDS011;42982;54.558;18.508;2022-08-21T03:50:08;9.57;;;5.53;;
57101;SDS011;42982;54.558;18.508;2022-08-21T03:51:12;8.70;;;5.63;;
57101;SDS011;42982;54.558;18.508;2022-08-21T03:52:16;7.22;;;5.45;;
57101;SDS011;42982;54.558;18.508;2022-08-21T03:53:18;6.78;;;4.93;;
57101;SDS011;42982;54.558;18.508;2022-08-21T03:54:22;8.15;;;5.55;;
57101;SDS011;42982;54.558;18.508;2022-08-21T03:55:25;8.70;;;4.93;;
57101;SDS011;42982;54.558;18.508;2022-08-21T03:56:32;8.27;;;5.15;;
57101;SDS011;42982;54.558;18.508;2022-08-21T03:57:37;7.65;;;4.55;;
57101;SDS011;42982;54.558;18.508;2022-08-21T03:58:38;6.22;;;4.80;;
57101;SDS011;42982;54.558;18.508;2022-08-21T03:59:43;20.13;;;11.90;;
57101;SDS011;42982;54.558;18.508;2022-08-21T04:00:52;24.35;;;13.88;;
57101;SDS011;42982;54.558;18.508;2022-08-21T04:01:58;11.73;;;6.72;;
57101;SDS011;42982;54.558;18.508;2022-08-21T04:03:01;10.52;;;5.72;;
57101;SDS011;42982;54.558;18.508;2022-08-21T04:04:04;6.97;;;5.05;;
57101;SDS011;42982;54.558;18.508;2022-08-21T04:05:07;9.65;;;5.07;;
57101;SDS011;42982;54.558;18.508;2022-08-21T04:06:11;6.50;;;4.80;;
57101;SDS011;42982;54.558;18.508;2022-08-21T04:07:18;7.05;;;4.78;;
57101;SDS011;42982;54.558;18.508;2022-08-21T04:08:23;6.13;;;4.25;;
57101;SDS011;42982;54.558;18.508;2022-08-21T04:09:25;6.90;;;4.40;;
57101;SDS011;42982;54.558;18.508;2022-08-21T04:10:29;6.82;;;4.35;;
57101;SDS011;42982;54.558;18.508;2022-08-21T04:11:36;6.13;;;4.20;;
57101;SDS011;42982;54.558;18.508;2022-08-21T04:12:38;8.57;;;4.88;;
57101;SDS011;42982;54.558;18.508;2022-08-21T04:13:45;8.07;;;4.40;;
57101;SDS011;42982;54.558;18.508;2022-08-21T04:14:47;10.85;;;5.65;;
57101;SDS011;42982;54.558;18.508;2022-08-21T04:15:53;8.68;;;4.70;;
57101;SDS011;42982;54.558;18.508;2022-08-21T04:16:58;6.55;;;4.75;;
57101;SDS011;42982;54.558;18.508;2022-08-21T04:18:05;8.30;;;5.18;;
57101;SDS011;42982;54.558;18.508;2022-08-21T04:19:15;8.77;;;4.80;;
57101;SDS011;42982;54.558;18.508;2022-08-21T04:20:17;6.35;;;4.68;;
57101;SDS011;42982;54.558;18.508;2022-08-21T04:21:20;10.32;;;5.43;;
57101;SDS011;42982;54.558;18.508;2022-08-21T04:22:25;7.55;;;5.35;;
57101;SDS011;42982;54.558;18.508;2022-08-21T04:23:30;8.38;;;5.05;;
57101;SDS011;42982;54.558;18.508;2022-08-21T04:24:40;8.23;;;4.72;;
57101;SDS011;42982;54.558;18.508;2022-08-21T04:25:45;7.63;;;5.03;;
57101;SDS011;42982;54.558;18.508;2022-08-21T04:26:49;6.70;;;4.88;;
57101;SDS011;42982;54.558;18.508;2022-08-21T04:27:54;7.65;;;5.35;;
57101;SDS011;42982;54.558;18.508;2022-08-21T04:28:57;8.32;;;4.90;;
57101;SDS011;42982;54.558;18.508;2022-08-21T04:30:00;8.60;;;5.28;;
57101;SDS011;42982;54.558;18.508;2022-08-21T04:31:04;9.95;;;5.65;;
57101;SDS011;42982;54.558;18.508;2022-08-21T04:32:10;10.13;;;5.07;;
57101;SDS011;42982;54.558;18.508;2022-08-21T04:33:13;7.78;;;4.82;;
57101;SDS011;42982;54.558;18.508;2022-08-21T04:34:17;7.45;;;5.13;;
57101;SDS011;42982;54.558;18.508;2022-08-21T04:35:20;8.32;;;4.75;;
57101;SDS011;42982;54.558;18.508;2022-08-21T04:36:22;12.75;;;4.97;;
57101;SDS011;42982;54.558;18.508;2022-08-21T04:37:31;9.93;;;4.80;;
57101;SDS011;42982;54.558;18.508;2022-08-21T04:38:33;10.50;;;5.75;;
57101;SDS011;42982;54.558;18.508;2022-08-21T04:39:35;8.68;;;5.78;;
57101;SDS011;42982;54.558;18.508;2022-08-21T04:40:37;9.10;;;6.07;;
57101;SDS011;42982;54.558;18.508;2022-08-21T04:41:41;9.15;;;5.60;;
57101;SDS011;42982;54.558;18.508;2022-08-21T04:42:47;8.25;;;5.55;;
57101;SDS011;42982;54.558;18.508;2022-08-21T04:43:51;8.98;;;5.20;;
57101;SDS011;42982;54.558;18.508;2022-08-21T04:44:54;8.55;;;5.40;;
57101;SDS011;42982;54.558;18.508;2022-08-21T04:45:57;8.68;;;5.25;;
57101;SDS011;42982;54.558;18.508;2022-08-21T04:47:05;11.65;;;5.30;;
57101;SDS011;42982;54.558;18.508;2022-08-21T04:48:09;6.80;;;4.93;;
57101;SDS011;42982;54.558;18.508;2022-08-21T04:49:12;8.80;;;5.28;;
57101;SDS011;42982;54.558;18.508;2022-08-21T04:50:14;10.20;;;5.32;;
57101;SDS011;42982;54.558;18.508;2022-08-21T04:51:34;13.13;;;5.55;;
57101;SDS011;42982;54.558;18.508;2022-08-21T04:52:56;10.95;;;4.90;;
57101;SDS011;42982;54.558;18.508;2022-08-21T04:54:02;7.30;;;5.30;;
57101;SDS011;42982;54.558;18.508;2022-08-21T04:55:19;10.57;;;4.82;;
57101;SDS011;42982;54.558;18.508;2022-08-21T04:56:27;10.85;;;4.90;;
57101;SDS011;42982;54.558;18.508;2022-08-21T04:58:37;7.45;;;4.72;;
57101;SDS011;42982;54.558;18.508;2022-08-21T04:59:46;6.60;;;4.40;;
57101;SDS011;42982;54.558;18.508;2022-08-21T05:00:50;9.88;;;5.07;;
57101;SDS011;42982;54.558;18.508;2022-08-21T05:01:55;7.68;;;4.43;;
57101;SDS011;42982;54.558;18.508;2022-08-21T05:03:00;6.50;;;4.28;;
57101;SDS011;42982;54.558;18.508;2022-08-21T05:04:10;12.60;;;5.65;;
57101;SDS011;42982;54.558;18.508;2022-08-21T05:05:15;10.63;;;4.95;;
57101;SDS011;42982;54.558;18.508;2022-08-21T05:06:18;8.52;;;4.78;;
57101;SDS011;42982;54.558;18.508;2022-08-21T05:07:24;10.48;;;5.13;;
57101;SDS011;42982;54.558;18.508;2022-08-21T05:08:33;7.00;;;4.30;;
57101;SDS011;42982;54.558;18.508;2022-08-21T05:09:35;7.35;;;4.85;;
57101;SDS011;42982;54.558;18.508;2022-08-21T05:10:41;9.45;;;4.95;;
57101;SDS011;42982;54.558;18.508;2022-08-21T05:11:47;7.82;;;4.53;;
57101;SDS011;42982;54.558;18.508;2022-08-21T05:12:53;9.27;;;4.90;;
57101;SDS011;42982;54.558;18.508;2022-08-21T05:13:58;8.65;;;5.05;;
57101;SDS011;42982;54.558;18.508;2022-08-21T05:15:02;8.23;;;4.80;;
57101;SDS011;42982;54.558;18.508;2022-08-21T05:16:05;9.00;;;5.32;;
57101;SDS011;42982;54.558;18.508;2022-08-21T05:17:13;8.93;;;4.60;;
57101;SDS011;42982;54.558;18.508;2022-08-21T05:18:15;9.18;;;5.40;;
57101;SDS011;42982;54.558;18.508;2022-08-21T05:19:20;7.82;;;5.22;;
57101;SDS011;42982;54.558;18.508;2022-08-21T05:20:26;7.25;;;5.07;;
57101;SDS011;42982;54.558;18.508;2022-08-21T05:21:32;8.75;;;4.97;;
57101;SDS011;42982;54.558;18.508;2022-08-21T05:22:39;6.82;;;5.10;;
57101;SDS011;42982;54.558;18.508;2022-08-21T05:23:45;8.50;;;5.35;;
57101;SDS011;42982;54.558;18.508;2022-08-21T05:24:49;10.65;;;5.15;;
57101;SDS011;42982;54.558;18.508;2022-08-21T05:25:52;8.25;;;5.43;;
57101;SDS011;42982;54.558;18.508;2022-08-21T05:26:58;7.80;;;5.80;;
57101;SDS011;42982;54.558;18.508;2022-08-21T05:28:00;9.32;;;5.85;;
57101;SDS011;42982;54.558;18.508;2022-08-21T05:29:02;9.15;;;5.88;;
57101;SDS011;42982;54.558;18.508;2022-08-21T05:30:06;8.73;;;5.07;;
57101;SDS011;42982;54.558;18.508;2022-08-21T05:31:14;6.75;;;5.10;;
57101;SDS011;42982;54.558;18.508;2022-08-21T05:32:20;7.30;;;5.28;;
57101;SDS011;42982;54.558;18.508;2022-08-21T05:33:25;9.55;;;5.93;;
57101;SDS011;42982;54.558;18.508;2022-08-21T05:34:26;10.45;;;5.57;;
57101;SDS011;42982;54.558;18.508;2022-08-21T05:35:31;9.52;;;5.50;;
57101;SDS011;42982;54.558;18.508;2022-08-21T05:36:35;8.13;;;5.40;;
57101;SDS011;42982;54.558;18.508;2022-08-21T05:37:42;6.85;;;5.13;;
57101;SDS011;42982;54.558;18.508;2022-08-21T05:38:43;7.90;;;5.55;;
57101;SDS011;42982;54.558;18.508;2022-08-21T05:39:46;8.60;;;5.20;;
57101;SDS011;42982;54.558;18.508;2022-08-21T05:40:50;8.82;;;5.40;;
57101;SDS011;42982;54.558;18.508;2022-08-21T05:41:52;10.63;;;5.63;;
57101;SDS011;42982;54.558;18.508;2022-08-21T05:42:58;7.05;;;5.32;;
57101;SDS011;42982;54.558;18.508;2022-08-21T05:44:02;9.80;;;5.53;;
57101;SDS011;42982;54.558;18.508;2022-08-21T05:45:05;7.75;;;5.03;;
57101;SDS011;42982;54.558;18.508;2022-08-21T05:46:13;7.68;;;5.32;;
57101;SDS011;42982;54.558;18.508;2022-08-21T05:47:18;6.80;;;5.05;;
57101;SDS011;42982;54.558;18.508;2022-08-21T05:48:23;7.13;;;5.43;;
57101;SDS011;42982;54.558;18.508;2022-08-21T05:49:28;6.50;;;4.72;;
57101;SDS011;42982;54.558;18.508;2022-08-21T05:50:30;7.20;;;4.88;;
57101;SDS011;42982;54.558;18.508;2022-08-21T05:51:35;8.10;;;5.60;;
57101;SDS011;42982;54.558;18.508;2022-08-21T05:52:39;8.38;;;5.65;;
57101;SDS011;42982;54.558;18.508;2022-08-21T05:53:43;7.80;;;5.38;;
57101;SDS011;42982;54.558;18.508;2022-08-21T05:54:48;7.25;;;5.35;;
57101;SDS011;42982;54.558;18.508;2022-08-21T05:55:55;11.98;;;5.65;;
57101;SDS011;42982;54.558;18.508;2022-08-21T05:57:01;7.20;;;5.38;;
57101;SDS011;42982;54.558;18.508;2022-08-21T05:58:05;6.47;;;4.72;;
57101;SDS011;42982;54.558;18.508;2022-08-21T05:59:07;8.48;;;5.13;;
57101;SDS011;42982;54.558;18.508;2022-08-21T06:00:15;8.18;;;4.88;;
57101;SDS011;42982;54.558;18.508;2022-08-21T06:01:24;7.28;;;5.32;;
57101;SDS011;42982;54.558;18.508;2022-08-21T06:02:26;6.68;;;4.57;;
57101;SDS011;42982;54.558;18.508;2022-08-21T06:03:33;6.65;;;5.15;;
57101;SDS011;42982;54.558;18.508;2022-08-21T06:04:40;11.30;;;4.45;;
57101;SDS011;42982;54.558;18.508;2022-08-21T06:05:42;7.75;;;4.80;;
57101;SDS011;42982;54.558;18.508;2022-08-21T06:06:43;9.85;;;4.72;;
57101;SDS011;42982;54.558;18.508;2022-08-21T06:07:45;8.50;;;5.03;;
57101;SDS011;42982;54.558;18.508;2022-08-21T06:08:50;6.57;;;4.47;;
57101;SDS011;42982;54.558;18.508;2022-08-21T06:09:53;10.73;;;5.13;;
57101;SDS011;42982;54.558;18.508;2022-08-21T06:10:58;7.97;;;4.55;;
57101;SDS011;42982;54.558;18.508;2022-08-21T06:12:13;7.63;;;4.43;;
57101;SDS011;42982;54.558;18.508;2022-08-21T06:13:15;6.65;;;4.40;;
57101;SDS011;42982;54.558;18.508;2022-08-21T06:14:18;8.77;;;4.30;;
57101;SDS011;42982;54.558;18.508;2022-08-21T06:15:23;7.32;;;4.50;;
57101;SDS011;42982;54.558;18.508;2022-08-21T06:16:28;7.53;;;4.40;;
57101;SDS011;42982;54.558;18.508;2022-08-21T06:17:40;7.43;;;4.07;;
57101;SDS011;42982;54.558;18.508;2022-08-21T06:18:45;7.00;;;4.43;;
57101;SDS011;42982;54.558;18.508;2022-08-21T06:19:50;6.38;;;4.30;;
57101;SDS011;42982;54.558;18.508;2022-08-21T06:20:58;5.18;;;4.30;;
57101;SDS011;42982;54.558;18.508;2022-08-21T06:22:06;5.18;;;3.92;;
57101;SDS011;42982;54.558;18.508;2022-08-21T06:23:08;6.10;;;4.70;;
57101;SDS011;42982;54.558;18.508;2022-08-21T06:24:10;5.82;;;4.28;;
57101;SDS011;42982;54.558;18.508;2022-08-21T06:25:12;7.60;;;4.35;;
57101;SDS011;42982;54.558;18.508;2022-08-21T06:26:14;5.13;;;3.90;;
57101;SDS011;42982;54.558;18.508;2022-08-21T06:27:24;9.20;;;4.05;;
57101;SDS011;42982;54.558;18.508;2022-08-21T06:28:26;5.47;;;3.90;;